sensor_id;sensor_type;location;lat;lon;timestamp;temperature;humidity
24146;DHT22;12308;50.948;4.706;2024-01-15T00:02:18;3.50;99.90
24146;DHT22;12308;50.948;4.706;2024-01-15T00:04:44;3.50;99.90
24146;DHT22;12308;50.948;4.706;2024-01-15T00:07:09;3.50;99.90
24146;DHT22;12308;50.948;4.706;2024-01-15T00:09:35;3.40;99.90
24146;DHT22;12308;50.948;4.706;2024-01-15T00:12:02;3.50;99.90
24146;DHT22;12308;50.948;4.706;2024-01-15T00:14:28;3.50;99.90
24146;DHT22;12308;50.948;4.706;2024-01-15T00:16:54;3.40;99.90
24146;DHT22;12308;50.948;4.706;2024-01-15T00:19:23;3.60;99.90
24146;DHT22;12308;50.948;4.706;2024-01-15T00:21:49;3.60;99.90
24146;DHT22;12308;50.948;4.706;2024-01-15T00:24:15;3.50;99.90
24146;DHT22;12308;50.948;4.706;2024-01-15T00:26:41;3.50;99.90
24146;DHT22;12308;50.948;4.706;2024-01-15T00:29:07;3.40;99.90
24146;DHT22;12308;50.948;4.706;2024-01-15T00:31:34;3.60;99.90
24146;DHT22;12308;50.948;4.706;2024-01-15T00:33:59;3.60;99.90
24146;DHT22;12308;50.948;4.706;2024-01-15T00:36:25;3.60;99.90
24146;DHT22;12308;50.948;4.706;2024-01-15T00:38:51;3.60;99.90
24146;DHT22;12308;50.948;4.706;2024-01-15T00:41:17;3.60;99.90
24146;DHT22;12308;50.948;4.706;2024-01-15T00:43:44;3.70;99.90
24146;DHT22;12308;50.948;4.706;2024-01-15T00:46:10;3.60;99.90
24146;DHT22;12308;50.948;4.706;2024-01-15T00:48:36;3.60;99.90
24146;DHT22;12308;50.948;4.706;2024-01-15T00:51:03;3.50;99.90
24146;DHT22;12308;50.948;4.706;2024-01-15T00:53:29;3.60;99.90
24146;DHT22;12308;50.948;4.706;2024-01-15T00:55:55;3.70;99.90
24146;DHT22;12308;50.948;4.706;2024-01-15T00:58:21;3.70;99.90
24146;DHT22;12308;50.948;4.706;2024-01-15T01:00:46;3.60;99.90
24146;DHT22;12308;50.948;4.706;2024-01-15T01:03:12;3.60;99.90
24146;DHT22;12308;50.948;4.706;2024-01-15T01:05:38;3.40;99.90
24146;DHT22;12308;50.948;4.706;2024-01-15T01:08:04;3.20;99.90
24146;DHT22;12308;50.948;4.706;2024-01-15T01:10:29;3.20;99.90
24146;DHT22;12308;50.948;4.706;2024-01-15T01:12:55;3.10;99.90
24146;DHT22;12308;50.948;4.706;2024-01-15T01:15:21;3.20;99.90
24146;DHT22;12308;50.948;4.706;2024-01-15T01:17:47;3.10;99.90
24146;DHT22;12308;50.948;4.706;2024-01-15T01:20:12;3.00;99.90
24146;DHT22;12308;50.948;4.706;2024-01-15T01:22:40;3.00;99.90
24146;DHT22;12308;50.948;4.706;2024-01-15T01:25:06;3.00;99.90
24146;DHT22;12308;50.948;4.706;2024-01-15T01:27:32;3.10;99.90
24146;DHT22;12308;50.948;4.706;2024-01-15T01:29:58;3.00;99.90
24146;DHT22;12308;50.948;4.706;2024-01-15T01:32:23;3.10;99.90
24146;DHT22;12308;50.948;4.706;2024-01-15T01:34:49;3.10;99.90
24146;DHT22;12308;50.948;4.706;2024-01-15T01:37:15;3.10;99.90
24146;DHT22;12308;50.948;4.706;2024-01-15T01:39:41;3.20;99.90
24146;DHT22;12308;50.948;4.706;2024-01-15T01:42:07;3.00;99.90
24146;DHT22;12308;50.948;4.706;2024-01-15T01:44:33;3.00;99.90
24146;DHT22;12308;50.948;4.706;2024-01-15T01:46:59;3.00;99.90
24146;DHT22;12308;50.948;4.706;2024-01-15T01:49:29;3.10;99.90
24146;DHT22;12308;50.948;4.706;2024-01-15T01:52:00;3.10;99.90
24146;DHT22;12308;50.948;4.706;2024-01-15T01:54:29;3.10;99.90
24146;DHT22;12308;50.948;4.706;2024-01-15T01:56:55;3.20;99.90
24146;DHT22;12308;50.948;4.706;2024-01-15T01:59:23;3.10;99.90
24146;DHT22;12308;50.948;4.706;2024-01-15T02:01:49;3.20;99.90
24146;DHT22;12308;50.948;4.706;2024-01-15T02:04:16;3.20;99.90
24146;DHT22;12308;50.948;4.706;2024-01-15T02:06:42;3.30;99.90
24146;DHT22;12308;50.948;4.706;2024-01-15T02:09:09;3.10;99.90
24146;DHT22;12308;50.948;4.706;2024-01-15T02:11:36;3.20;99.90
24146;DHT22;12308;50.948;4.706;2024-01-15T02:14:02;3.20;99.90
24146;DHT22;12308;50.948;4.706;2024-01-15T02:16:28;3.20;99.90
24146;DHT22;12308;50.948;4.706;2024-01-15T02:18:53;3.20;99.90
24146;DHT22;12308;50.948;4.706;2024-01-15T02:21:19;3.20;99.90
24146;DHT22;12308;50.948;4.706;2024-01-15T02:23:45;3.30;99.90
24146;DHT22;12308;50.948;4.706;2024-01-15T02:26:11;3.20;99.90
24146;DHT22;12308;50.948;4.706;2024-01-15T02:28:37;3.10;99.90
24146;DHT22;12308;50.948;4.706;2024-01-15T02:31:03;3.10;99.90
24146;DHT22;12308;50.948;4.706;2024-01-15T02:33:29;3.10;99.90
24146;DHT22;12308;50.948;4.706;2024-01-15T02:35:55;3.10;99.90
24146;DHT22;12308;50.948;4.706;2024-01-15T02:38:20;3.10;99.90
24146;DHT22;12308;50.948;4.706;2024-01-15T02:40:47;3.10;99.90
24146;DHT22;12308;50.948;4.706;2024-01-15T02:43:12;3.20;99.90
24146;DHT22;12308;50.948;4.706;2024-01-15T02:45:39;3.40;99.90
24146;DHT22;12308;50.948;4.706;2024-01-15T02:48:05;3.30;99.90
24146;DHT22;12308;50.948;4.706;2024-01-15T02:50:31;3.10;99.90
24146;DHT22;12308;50.948;4.706;2024-01-15T02:52:57;3.10;99.90
24146;DHT22;12308;50.948;4.706;2024-01-15T02:55:22;3.10;99.90
24146;DHT22;12308;50.948;4.706;2024-01-15T02:57:48;3.20;99.90
24146;DHT22;12308;50.948;4.706;2024-01-15T03:00:14;3.40;99.90
24146;DHT22;12308;50.948;4.706;2024-01-15T03:02:40;3.20;99.90
24146;DHT22;12308;50.948;4.706;2024-01-15T03:05:11;3.20;99.90
24146;DHT22;12308;50.948;4.706;2024-01-15T03:07:37;3.30;99.90
24146;DHT22;12308;50.948;4.706;2024-01-15T03:10:04;3.40;99.90
24146;DHT22;12308;50.948;4.706;2024-01-15T03:12:30;3.50;99.90
24146;DHT22;12308;50.948;4.706;2024-01-15T03:14:56;3.40;99.90
24146;DHT22;12308;50.948;4.706;2024-01-15T03:17:21;3.40;99.90
24146;DHT22;12308;50.948;4.706;2024-01-15T03:19:47;3.40;99.90
24146;DHT22;12308;50.948;4.706;2024-01-15T03:22:15;3.40;99.90
24146;DHT22;12308;50.948;4.706;2024-01-15T03:24:41;3.40;99.90
24146;DHT22;12308;50.948;4.706;2024-01-15T03:27:07;3.40;99.90
24146;DHT22;12308;50.948;4.706;2024-01-15T03:29:32;3.40;99.90
24146;DHT22;12308;50.948;4.706;2024-01-15T03:31:58;3.40;99.90
24146;DHT22;12308;50.948;4.706;2024-01-15T03:34:24;3.40;99.90
24146;DHT22;12308;50.948;4.706;2024-01-15T03:36:49;3.60;99.90
24146;DHT22;12308;50.948;4.706;2024-01-15T03:39:15;3.60;99.90
24146;DHT22;12308;50.948;4.706;2024-01-15T03:41:41;3.50;99.90
24146;DHT22;12308;50.948;4.706;2024-01-15T03:44:06;3.50;99.90
24146;DHT22;12308;50.948;4.706;2024-01-15T03:46:32;3.60;99.90
24146;DHT22;12308;50.948;4.706;2024-01-15T03:48:58;3.70;99.90
24146;DHT22;12308;50.948;4.706;2024-01-15T03:51:24;3.70;99.90
24146;DHT22;12308;50.948;4.706;2024-01-15T03:53:50;3.60;99.90
24146;DHT22;12308;50.948;4.706;2024-01-15T03:56:16;3.70;99.90
24146;DHT22;12308;50.948;4.706;2024-01-15T03:58:42;3.70;99.90
24146;DHT22;12308;50.948;4.706;2024-01-15T04:01:11;3.80;99.90
24146;DHT22;12308;50.948;4.706;2024-01-15T04:03:37;3.80;99.90
24146;DHT22;12308;50.948;4.706;2024-01-15T04:06:04;3.70;99.90
24146;DHT22;12308;50.948;4.706;2024-01-15T04:08:29;3.60;99.90
24146;DHT22;12308;50.948;4.706;2024-01-15T04:10:55;3.60;99.90
24146;DHT22;12308;50.948;4.706;2024-01-15T04:13:21;3.70;99.90
24146;DHT22;12308;50.948;4.706;2024-01-15T04:15:47;3.70;99.90
24146;DHT22;12308;50.948;4.706;2024-01-15T04:18:12;3.80;99.90
24146;DHT22;12308;50.948;4.706;2024-01-15T04:20:38;3.60;99.90
24146;DHT22;12308;50.948;4.706;2024-01-15T04:23:04;3.50;99.90
24146;DHT22;12308;50.948;4.706;2024-01-15T04:25:30;3.50;99.90
24146;DHT22;12308;50.948;4.706;2024-01-15T04:27:56;3.40;99.90
24146;DHT22;12308;50.948;4.706;2024-01-15T04:30:22;3.40;99.90
24146;DHT22;12308;50.948;4.706;2024-01-15T04:32:48;3.50;99.90
24146;DHT22;12308;50.948;4.706;2024-01-15T04:35:13;3.40;99.90
24146;DHT22;12308;50.948;4.706;2024-01-15T04:37:42;3.40;99.90
24146;DHT22;12308;50.948;4.706;2024-01-15T04:40:08;3.20;99.90
24146;DHT22;12308;50.948;4.706;2024-01-15T04:42:35;3.20;99.90
24146;DHT22;12308;50.948;4.706;2024-01-15T04:45:00;3.10;99.90
24146;DHT22;12308;50.948;4.706;2024-01-15T04:47:26;3.10;99.90
24146;DHT22;12308;50.948;4.706;2024-01-15T04:49:53;3.10;99.90
24146;DHT22;12308;50.948;4.706;2024-01-15T04:52:19;3.00;99.90
24146;DHT22;12308;50.948;4.706;2024-01-15T04:54:44;2.90;99.90
24146;DHT22;12308;50.948;4.706;2024-01-15T04:57:10;2.90;99.90
24146;DHT22;12308;50.948;4.706;2024-01-15T04:59:35;2.90;99.90
24146;DHT22;12308;50.948;4.706;2024-01-15T05:02:01;2.90;99.90
24146;DHT22;12308;50.948;4.706;2024-01-15T05:04:27;2.90;99.90
24146;DHT22;12308;50.948;4.706;2024-01-15T05:06:55;2.90;99.90
24146;DHT22;12308;50.948;4.706;2024-01-15T05:09:21;3.00;99.90
24146;DHT22;12308;50.948;4.706;2024-01-15T05:11:46;2.90;99.90
24146;DHT22;12308;50.948;4.706;2024-01-15T05:14:12;2.90;99.90
24146;DHT22;12308;50.948;4.706;2024-01-15T05:16:38;2.80;99.90
24146;DHT22;12308;50.948;4.706;2024-01-15T05:19:04;2.70;99.90
24146;DHT22;12308;50.948;4.706;2024-01-15T05:21:30;2.70;99.90
24146;DHT22;12308;50.948;4.706;2024-01-15T05:23:56;2.70;99.90
24146;DHT22;12308;50.948;4.706;2024-01-15T05:26:21;2.70;99.90
24146;DHT22;12308;50.948;4.706;2024-01-15T05:28:47;2.70;99.90
24146;DHT22;12308;50.948;4.706;2024-01-15T05:31:13;2.70;99.90
24146;DHT22;12308;50.948;4.706;2024-01-15T05:33:39;2.70;99.90
24146;DHT22;12308;50.948;4.706;2024-01-15T05:36:06;2.70;99.90
24146;DHT22;12308;50.948;4.706;2024-01-15T05:38:31;2.80;99.90
24146;DHT22;12308;50.948;4.706;2024-01-15T05:40:57;2.70;99.90
24146;DHT22;12308;50.948;4.706;2024-01-15T05:43:22;2.70;99.90
24146;DHT22;12308;50.948;4.706;2024-01-15T05:45:48;2.70;99.90
24146;DHT22;12308;50.948;4.706;2024-01-15T05:48:14;2.60;99.90
24146;DHT22;12308;50.948;4.706;2024-01-15T05:50:40;2.70;99.90
24146;DHT22;12308;50.948;4.706;2024-01-15T05:53:05;2.60;99.90
24146;DHT22;12308;50.948;4.706;2024-01-15T05:55:31;2.70;99.90
24146;DHT22;12308;50.948;4.706;2024-01-15T05:57:57;2.70;99.90
24146;DHT22;12308;50.948;4.706;2024-01-15T06:00:22;2.60;99.90
24146;DHT22;12308;50.948;4.706;2024-01-15T06:02:48;2.60;99.90
24146;DHT22;12308;50.948;4.706;2024-01-15T06:05:14;2.70;99.90
24146;DHT22;12308;50.948;4.706;2024-01-15T06:07:41;2.80;99.90
24146;DHT22;12308;50.948;4.706;2024-01-15T06:10:07;2.80;99.90
24146;DHT22;12308;50.948;4.706;2024-01-15T06:12:33;2.70;99.90
24146;DHT22;12308;50.948;4.706;2024-01-15T06:14:59;2.70;99.90
24146;DHT22;12308;50.948;4.706;2024-01-15T06:17:25;2.80;99.90
24146;DHT22;12308;50.948;4.706;2024-01-15T06:19:51;2.80;99.90
24146;DHT22;12308;50.948;4.706;2024-01-15T06:22:17;2.70;99.90
24146;DHT22;12308;50.948;4.706;2024-01-15T06:24:43;2.70;99.90
24146;DHT22;12308;50.948;4.706;2024-01-15T06:27:08;2.70;99.90
24146;DHT22;12308;50.948;4.706;2024-01-15T06:29:37;2.70;99.90
24146;DHT22;12308;50.948;4.706;2024-01-15T06:32:03;2.70;99.90
24146;DHT22;12308;50.948;4.706;2024-01-15T06:34:29;2.70;99.90
24146;DHT22;12308;50.948;4.706;2024-01-15T06:36:55;2.70;99.90
24146;DHT22;12308;50.948;4.706;2024-01-15T06:39:21;2.70;99.90
24146;DHT22;12308;50.948;4.706;2024-01-15T06:41:46;2.70;99.90
24146;DHT22;12308;50.948;4.706;2024-01-15T06:44:12;2.80;99.90
24146;DHT22;12308;50.948;4.706;2024-01-15T06:46:45;2.90;99.90
24146;DHT22;12308;50.948;4.706;2024-01-15T06:49:11;2.90;99.90
24146;DHT22;12308;50.948;4.706;2024-01-15T06:51:37;2.80;99.90
24146;DHT22;12308;50.948;4.706;2024-01-15T06:54:03;2.80;99.90
24146;DHT22;12308;50.948;4.706;2024-01-15T06:56:29;2.90;99.90
24146;DHT22;12308;50.948;4.706;2024-01-15T06:58:55;2.90;99.90
24146;DHT22;12308;50.948;4.706;2024-01-15T07:01:20;2.80;99.90
24146;DHT22;12308;50.948;4.706;2024-01-15T07:03:46;2.70;99.90
24146;DHT22;12308;50.948;4.706;2024-01-15T07:06:12;2.80;99.90
24146;DHT22;12308;50.948;4.706;2024-01-15T07:08:41;2.70;99.90
24146;DHT22;12308;50.948;4.706;2024-01-15T07:11:07;2.70;99.90
24146;DHT22;12308;50.948;4.706;2024-01-15T07:13:33;2.80;99.90
24146;DHT22;12308;50.948;4.706;2024-01-15T07:15:59;2.70;99.90
24146;DHT22;12308;50.948;4.706;2024-01-15T07:18:25;2.60;99.90
24146;DHT22;12308;50.948;4.706;2024-01-15T07:20:51;2.70;99.90
24146;DHT22;12308;50.948;4.706;2024-01-15T07:23:17;2.80;99.90
24146;DHT22;12308;50.948;4.706;2024-01-15T07:25:42;2.90;99.90
24146;DHT22;12308;50.948;4.706;2024-01-15T07:28:08;2.90;99.90
24146;DHT22;12308;50.948;4.706;2024-01-15T07:30:34;2.80;99.90
24146;DHT22;12308;50.948;4.706;2024-01-15T07:32:59;2.80;99.90
24146;DHT22;12308;50.948;4.706;2024-01-15T07:35:25;2.70;99.90
24146;DHT22;12308;50.948;4.706;2024-01-15T07:37:51;2.80;99.90
24146;DHT22;12308;50.948;4.706;2024-01-15T07:40:16;2.80;99.90
24146;DHT22;12308;50.948;4.706;2024-01-15T07:42:42;2.90;99.90
24146;DHT22;12308;50.948;4.706;2024-01-15T07:45:10;2.90;99.90
24146;DHT22;12308;50.948;4.706;2024-01-15T07:47:36;2.80;99.90
24146;DHT22;12308;50.948;4.706;2024-01-15T07:50:02;2.80;99.90
24146;DHT22;12308;50.948;4.706;2024-01-15T07:52:28;2.80;99.90
24146;DHT22;12308;50.948;4.706;2024-01-15T07:54:53;2.70;99.90
24146;DHT22;12308;50.948;4.706;2024-01-15T07:57:20;2.70;99.90
24146;DHT22;12308;50.948;4.706;2024-01-15T07:59:46;2.70;99.90
24146;DHT22;12308;50.948;4.706;2024-01-15T08:02:11;2.70;99.90
24146;DHT22;12308;50.948;4.706;2024-01-15T08:04:37;2.70;99.90
24146;DHT22;12308;50.948;4.706;2024-01-15T08:07:05;2.80;99.90
24146;DHT22;12308;50.948;4.706;2024-01-15T08:09:32;2.90;99.90
24146;DHT22;12308;50.948;4.706;2024-01-15T08:11:58;3.00;99.90
24146;DHT22;12308;50.948;4.706;2024-01-15T08:14:23;3.10;99.90
24146;DHT22;12308;50.948;4.706;2024-01-15T08:16:49;3.10;99.90
24146;DHT22;12308;50.948;4.706;2024-01-15T08:19:16;3.00;99.90
24146;DHT22;12308;50.948;4.706;2024-01-15T08:21:42;3.10;99.90
24146;DHT22;12308;50.948;4.706;2024-01-15T08:24:08;3.00;99.90
24146;DHT22;12308;50.948;4.706;2024-01-15T08:26:34;3.00;99.90
24146;DHT22;12308;50.948;4.706;2024-01-15T08:29:00;3.00;99.90
24146;DHT22;12308;50.948;4.706;2024-01-15T08:31:26;3.00;99.90
24146;DHT22;12308;50.948;4.706;2024-01-15T08:33:52;3.10;99.90
24146;DHT22;12308;50.948;4.706;2024-01-15T08:36:18;3.20;99.90
24146;DHT22;12308;50.948;4.706;2024-01-15T08:38:44;3.10;99.90
24146;DHT22;12308;50.948;4.706;2024-01-15T08:41:10;3.00;99.90
24146;DHT22;12308;50.948;4.706;2024-01-15T08:43:36;3.10;99.90
24146;DHT22;12308;50.948;4.706;2024-01-15T08:46:02;3.10;99.90
24146;DHT22;12308;50.948;4.706;2024-01-15T08:48:28;3.20;99.90
24146;DHT22;12308;50.948;4.706;2024-01-15T08:50:54;3.10;99.90
24146;DHT22;12308;50.948;4.706;2024-01-15T08:53:20;3.30;99.90
24146;DHT22;12308;50.948;4.706;2024-01-15T08:55:47;3.30;99.90
24146;DHT22;12308;50.948;4.706;2024-01-15T08:58:13;3.30;99.90
24146;DHT22;12308;50.948;4.706;2024-01-15T09:00:39;3.20;99.90
24146;DHT22;12308;50.948;4.706;2024-01-15T09:03:05;3.20;99.90
24146;DHT22;12308;50.948;4.706;2024-01-15T09:05:31;3.30;99.90
24146;DHT22;12308;50.948;4.706;2024-01-15T09:07:57;3.30;99.90
24146;DHT22;12308;50.948;4.706;2024-01-15T09:10:22;3.30;99.90
24146;DHT22;12308;50.948;4.706;2024-01-15T09:12:48;3.30;99.90
24146;DHT22;12308;50.948;4.706;2024-01-15T09:15:17;3.30;99.90
24146;DHT22;12308;50.948;4.706;2024-01-15T09:17:43;3.20;99.90
24146;DHT22;12308;50.948;4.706;2024-01-15T09:20:09;3.20;99.90
24146;DHT22;12308;50.948;4.706;2024-01-15T09:22:37;3.10;99.90
24146;DHT22;12308;50.948;4.706;2024-01-15T09:25:04;3.20;99.90
24146;DHT22;12308;50.948;4.706;2024-01-15T09:27:30;3.30;99.90
24146;DHT22;12308;50.948;4.706;2024-01-15T09:29:56;3.40;99.90
24146;DHT22;12308;50.948;4.706;2024-01-15T09:32:22;3.40;99.90
24146;DHT22;12308;50.948;4.706;2024-01-15T09:34:48;3.40;99.90
24146;DHT22;12308;50.948;4.706;2024-01-15T09:37:14;3.40;99.90
24146;DHT22;12308;50.948;4.706;2024-01-15T09:39:40;3.40;99.90
24146;DHT22;12308;50.948;4.706;2024-01-15T09:42:06;3.40;99.90
24146;DHT22;12308;50.948;4.706;2024-01-15T09:44:32;3.40;99.90
24146;DHT22;12308;50.948;4.706;2024-01-15T09:46:58;3.30;99.90
24146;DHT22;12308;50.948;4.706;2024-01-15T09:49:25;3.30;99.90
24146;DHT22;12308;50.948;4.706;2024-01-15T09:51:51;3.20;99.90
24146;DHT22;12308;50.948;4.706;2024-01-15T09:54:17;3.30;99.90
24146;DHT22;12308;50.948;4.706;2024-01-15T09:56:46;3.30;99.90
24146;DHT22;12308;50.948;4.706;2024-01-15T09:59:19;3.30;99.90
24146;DHT22;12308;50.948;4.706;2024-01-15T10:01:45;3.30;99.90
24146;DHT22;12308;50.948;4.706;2024-01-15T10:04:13;3.30;99.90
24146;DHT22;12308;50.948;4.706;2024-01-15T10:06:41;3.30;99.90
24146;DHT22;12308;50.948;4.706;2024-01-15T10:09:09;3.50;99.90
24146;DHT22;12308;50.948;4.706;2024-01-15T10:11:35;3.50;99.90
24146;DHT22;12308;50.948;4.706;2024-01-15T10:14:01;3.50;99.90
24146;DHT22;12308;50.948;4.706;2024-01-15T10:16:27;3.50;99.90
24146;DHT22;12308;50.948;4.706;2024-01-15T10:18:53;3.50;99.90
24146;DHT22;12308;50.948;4.706;2024-01-15T10:21:18;3.60;99.90
24146;DHT22;12308;50.948;4.706;2024-01-15T10:23:44;3.60;99.90
24146;DHT22;12308;50.948;4.706;2024-01-15T10:26:10;3.60;99.90
24146;DHT22;12308;50.948;4.706;2024-01-15T10:28:37;3.70;99.90
24146;DHT22;12308;50.948;4.706;2024-01-15T10:31:03;3.70;99.90
24146;DHT22;12308;50.948;4.706;2024-01-15T10:33:30;3.80;99.90
24146;DHT22;12308;50.948;4.706;2024-01-15T10:35:57;3.80;99.90
24146;DHT22;12308;50.948;4.706;2024-01-15T10:38:23;3.80;99.90
24146;DHT22;12308;50.948;4.706;2024-01-15T10:40:53;3.90;99.90
24146;DHT22;12308;50.948;4.706;2024-01-15T10:43:19;4.00;99.90
24146;DHT22;12308;50.948;4.706;2024-01-15T10:45:46;4.00;99.90
24146;DHT22;12308;50.948;4.706;2024-01-15T10:48:12;4.00;99.90
24146;DHT22;12308;50.948;4.706;2024-01-15T10:50:38;4.10;99.90
24146;DHT22;12308;50.948;4.706;2024-01-15T10:53:05;4.00;99.90
24146;DHT22;12308;50.948;4.706;2024-01-15T10:55:33;4.00;99.90
24146;DHT22;12308;50.948;4.706;2024-01-15T10:58:01;4.10;99.90
24146;DHT22;12308;50.948;4.706;2024-01-15T11:00:27;4.10;99.90
24146;DHT22;12308;50.948;4.706;2024-01-15T11:02:53;4.10;99.90
24146;DHT22;12308;50.948;4.706;2024-01-15T11:05:22;4.30;99.90
24146;DHT22;12308;50.948;4.706;2024-01-15T11:07:49;4.50;99.90
24146;DHT22;12308;50.948;4.706;2024-01-15T11:10:42;4.60;99.90
24146;DHT22;12308;50.948;4.706;2024-01-15T11:13:22;4.60;99.90
24146;DHT22;12308;50.948;4.706;2024-01-15T11:16:02;4.70;99.90
24146;DHT22;12308;50.948;4.706;2024-01-15T11:21:24;4.80;99.90
24146;DHT22;12308;50.948;4.706;2024-01-15T11:23:58;4.70;99.90
24146;DHT22;12308;50.948;4.706;2024-01-15T11:26:56;4.70;99.90
24146;DHT22;12308;50.948;4.706;2024-01-15T11:29:28;4.80;99.90
24146;DHT22;12308;50.948;4.706;2024-01-15T11:32:02;4.80;99.90
24146;DHT22;12308;50.948;4.706;2024-01-15T11:37:17;4.70;99.90
24146;DHT22;12308;50.948;4.706;2024-01-15T11:39:44;4.70;99.90
24146;DHT22;12308;50.948;4.706;2024-01-15T11:42:11;4.70;99.90
24146;DHT22;12308;50.948;4.706;2024-01-15T11:44:37;4.60;99.90
24146;DHT22;12308;50.948;4.706;2024-01-15T11:47:08;4.70;99.90
24146;DHT22;12308;50.948;4.706;2024-01-15T11:52:25;4.70;99.90
24146;DHT22;12308;50.948;4.706;2024-01-15T11:57:33;4.60;99.90
24146;DHT22;12308;50.948;4.706;2024-01-15T12:00:03;4.60;99.90
24146;DHT22;12308;50.948;4.706;2024-01-15T12:02:29;4.70;99.90
24146;DHT22;12308;50.948;4.706;2024-01-15T12:04:55;4.90;99.90
24146;DHT22;12308;50.948;4.706;2024-01-15T12:07:21;5.10;99.90
24146;DHT22;12308;50.948;4.706;2024-01-15T12:09:46;5.20;99.90
24146;DHT22;12308;50.948;4.706;2024-01-15T12:12:21;5.30;99.90
24146;DHT22;12308;50.948;4.706;2024-01-15T12:14:49;5.20;99.90
24146;DHT22;12308;50.948;4.706;2024-01-15T12:17:16;5.00;99.90
24146;DHT22;12308;50.948;4.706;2024-01-15T12:19:42;5.10;99.90
24146;DHT22;12308;50.948;4.706;2024-01-15T12:22:08;5.20;99.90
24146;DHT22;12308;50.948;4.706;2024-01-15T12:24:35;5.20;99.90
24146;DHT22;12308;50.948;4.706;2024-01-15T12:27:01;5.20;99.90
24146;DHT22;12308;50.948;4.706;2024-01-15T12:29:27;5.10;99.90
24146;DHT22;12308;50.948;4.706;2024-01-15T12:31:53;5.20;99.90
24146;DHT22;12308;50.948;4.706;2024-01-15T12:34:19;5.10;99.90
24146;DHT22;12308;50.948;4.706;2024-01-15T12:36:48;5.10;99.90
24146;DHT22;12308;50.948;4.706;2024-01-15T12:39:13;5.30;99.90
24146;DHT22;12308;50.948;4.706;2024-01-15T12:41:41;5.40;99.90
24146;DHT22;12308;50.948;4.706;2024-01-15T12:44:06;5.50;99.90
24146;DHT22;12308;50.948;4.706;2024-01-15T12:46:32;5.60;99.90
24146;DHT22;12308;50.948;4.706;2024-01-15T12:48:58;5.30;99.90
24146;DHT22;12308;50.948;4.706;2024-01-15T12:51:26;5.20;99.90
24146;DHT22;12308;50.948;4.706;2024-01-15T12:53:53;5.00;99.90
24146;DHT22;12308;50.948;4.706;2024-01-15T12:56:18;4.80;99.90
24146;DHT22;12308;50.948;4.706;2024-01-15T12:58:44;4.40;99.90
24146;DHT22;12308;50.948;4.706;2024-01-15T13:01:10;3.80;99.90
24146;DHT22;12308;50.948;4.706;2024-01-15T13:03:36;3.30;99.90
24146;DHT22;12308;50.948;4.706;2024-01-15T13:06:02;2.90;99.90
24146;DHT22;12308;50.948;4.706;2024-01-15T13:08:27;2.60;99.90
24146;DHT22;12308;50.948;4.706;2024-01-15T13:10:55;2.50;99.90
24146;DHT22;12308;50.948;4.706;2024-01-15T13:13:22;2.60;99.90
24146;DHT22;12308;50.948;4.706;2024-01-15T13:15:48;2.60;99.90
24146;DHT22;12308;50.948;4.706;2024-01-15T13:18:13;2.60;99.90
24146;DHT22;12308;50.948;4.706;2024-01-15T13:20:39;2.60;99.90
24146;DHT22;12308;50.948;4.706;2024-01-15T13:23:05;2.60;99.90
24146;DHT22;12308;50.948;4.706;2024-01-15T13:25:31;2.60;99.90
24146;DHT22;12308;50.948;4.706;2024-01-15T13:27:59;2.60;99.90
24146;DHT22;12308;50.948;4.706;2024-01-15T13:30:25;2.80;99.90
24146;DHT22;12308;50.948;4.706;2024-01-15T13:32:51;2.90;99.90
24146;DHT22;12308;50.948;4.706;2024-01-15T13:35:17;3.00;99.90
24146;DHT22;12308;50.948;4.706;2024-01-15T13:37:43;3.20;99.90
24146;DHT22;12308;50.948;4.706;2024-01-15T13:40:09;3.20;99.90
24146;DHT22;12308;50.948;4.706;2024-01-15T13:42:35;3.20;99.90
24146;DHT22;12308;50.948;4.706;2024-01-15T13:45:05;3.10;99.90
24146;DHT22;12308;50.948;4.706;2024-01-15T13:47:31;2.80;99.90
24146;DHT22;12308;50.948;4.706;2024-01-15T13:49:58;2.60;99.90
24146;DHT22;12308;50.948;4.706;2024-01-15T13:52:24;2.50;99.90
24146;DHT22;12308;50.948;4.706;2024-01-15T13:54:50;2.50;99.90
24146;DHT22;12308;50.948;4.706;2024-01-15T13:57:16;2.50;99.90
24146;DHT22;12308;50.948;4.706;2024-01-15T13:59:42;2.50;99.90
24146;DHT22;12308;50.948;4.706;2024-01-15T14:02:08;2.60;99.90
24146;DHT22;12308;50.948;4.706;2024-01-15T14:04:33;2.60;99.90
24146;DHT22;12308;50.948;4.706;2024-01-15T14:06:59;2.60;99.90
24146;DHT22;12308;50.948;4.706;2024-01-15T14:09:24;2.60;99.90
24146;DHT22;12308;50.948;4.706;2024-01-15T14:11:51;2.70;99.90
24146;DHT22;12308;50.948;4.706;2024-01-15T14:14:17;2.70;99.90
24146;DHT22;12308;50.948;4.706;2024-01-15T14:16:43;2.80;99.90
24146;DHT22;12308;50.948;4.706;2024-01-15T14:19:08;2.80;99.90
24146;DHT22;12308;50.948;4.706;2024-01-15T14:21:35;2.80;99.90
24146;DHT22;12308;50.948;4.706;2024-01-15T14:24:01;2.70;99.90
24146;DHT22;12308;50.948;4.706;2024-01-15T14:26:27;2.60;99.90
24146;DHT22;12308;50.948;4.706;2024-01-15T14:28:53;2.50;99.90
24146;DHT22;12308;50.948;4.706;2024-01-15T14:31:20;2.40;99.90
24146;DHT22;12308;50.948;4.706;2024-01-15T14:33:46;2.30;99.90
24146;DHT22;12308;50.948;4.706;2024-01-15T14:36:11;2.20;99.90
24146;DHT22;12308;50.948;4.706;2024-01-15T14:38:37;2.30;99.90
24146;DHT22;12308;50.948;4.706;2024-01-15T14:41:03;2.30;99.90
24146;DHT22;12308;50.948;4.706;2024-01-15T14:43:29;2.40;99.90
24146;DHT22;12308;50.948;4.706;2024-01-15T14:45:55;2.40;99.90
24146;DHT22;12308;50.948;4.706;2024-01-15T14:48:22;2.60;99.90
24146;DHT22;12308;50.948;4.706;2024-01-15T14:50:47;2.60;99.90
24146;DHT22;12308;50.948;4.706;2024-01-15T14:53:13;2.70;99.90
24146;DHT22;12308;50.948;4.706;2024-01-15T14:55:39;2.80;99.90
24146;DHT22;12308;50.948;4.706;2024-01-15T14:58:04;2.90;99.90
24146;DHT22;12308;50.948;4.706;2024-01-15T15:00:30;2.90;99.90
24146;DHT22;12308;50.948;4.706;2024-01-15T15:02:56;2.90;99.90
24146;DHT22;12308;50.948;4.706;2024-01-15T15:05:22;3.00;99.90
24146;DHT22;12308;50.948;4.706;2024-01-15T15:07:47;3.20;99.90
24146;DHT22;12308;50.948;4.706;2024-01-15T15:10:13;3.40;99.90
24146;DHT22;12308;50.948;4.706;2024-01-15T15:12:39;3.70;99.90
24146;DHT22;12308;50.948;4.706;2024-01-15T15:15:05;3.70;99.90
24146;DHT22;12308;50.948;4.706;2024-01-15T15:17:32;3.70;99.90
24146;DHT22;12308;50.948;4.706;2024-01-15T15:19:58;3.60;99.90
24146;DHT22;12308;50.948;4.706;2024-01-15T15:22:23;3.70;99.90
24146;DHT22;12308;50.948;4.706;2024-01-15T15:24:49;3.90;99.90
24146;DHT22;12308;50.948;4.706;2024-01-15T15:27:15;4.00;99.90
24146;DHT22;12308;50.948;4.706;2024-01-15T15:29:41;3.80;99.90
24146;DHT22;12308;50.948;4.706;2024-01-15T15:32:06;3.50;99.90
24146;DHT22;12308;50.948;4.706;2024-01-15T15:34:32;3.40;99.90
24146;DHT22;12308;50.948;4.706;2024-01-15T15:36:58;3.40;99.90
24146;DHT22;12308;50.948;4.706;2024-01-15T15:39:23;3.20;99.90
24146;DHT22;12308;50.948;4.706;2024-01-15T15:41:50;3.10;99.90
24146;DHT22;12308;50.948;4.706;2024-01-15T15:44:15;3.00;99.90
24146;DHT22;12308;50.948;4.706;2024-01-15T15:46:43;2.80;99.90
24146;DHT22;12308;50.948;4.706;2024-01-15T15:49:09;2.80;99.90
24146;DHT22;12308;50.948;4.706;2024-01-15T15:51:35;2.80;99.90